sensor_id;sensor_type;location;lat;lon;timestamp;pressure;altitude;pressure_sealevel;temperature;humidity
31761;BME280;18335;51.486;7.562;2023-11-21T00:01:33;99622.38;;;11.86;100.00
31761;BME280;18335;51.486;7.562;2023-11-21T00:04:00;99618.59;;;11.87;100.00
31761;BME280;18335;51.486;7.562;2023-11-21T00:06:27;99626.63;;;12.03;100.00
31761;BME280;18335;51.486;7.562;2023-11-21T00:08:56;99637.47;;;11.96;100.00
31761;BME280;18335;51.486;7.562;2023-11-21T00:11:23;99635.56;;;12.11;100.00
31761;BME280;18335;51.486;7.562;2023-11-21T00:13:53;99631.19;;;12.32;100.00
31761;BME280;18335;51.486;7.562;2023-11-21T00:16:20;99635.13;;;12.44;100.00
31761;BME280;18335;51.486;7.562;2023-11-21T00:18:47;99630.13;;;12.47;100.00
31761;BME280;18335;51.486;7.562;2023-11-21T00:21:14;99634.06;;;12.59;100.00
31761;BME280;18335;51.486;7.562;2023-11-21T00:23:41;99633.81;;;12.75;100.00
31761;BME280;18335;51.486;7.562;2023-11-21T00:26:09;99640.41;;;12.81;100.00
31761;BME280;18335;51.486;7.562;2023-11-21T00:28:37;99634.00;;;12.74;100.00
31761;BME280;18335;51.486;7.562;2023-11-21T00:31:04;99628.28;;;12.69;100.00
31761;BME280;18335;51.486;7.562;2023-11-21T00:33:30;99635.03;;;12.73;100.00
31761;BME280;18335;51.486;7.562;2023-11-21T00:35:57;99629.97;;;12.70;100.00
31761;BME280;18335;51.486;7.562;2023-11-21T00:38:24;99643.16;;;12.81;100.00
31761;BME280;18335;51.486;7.562;2023-11-21T00:40:51;99650.69;;;12.79;100.00
31761;BME280;18335;51.486;7.562;2023-11-21T00:43:19;99643.72;;;12.76;100.00
31761;BME280;18335;51.486;7.562;2023-11-21T00:45:46;99642.63;;;12.92;100.00
31761;BME280;18335;51.486;7.562;2023-11-21T00:48:14;99642.56;;;12.86;100.00
31761;BME280;18335;51.486;7.562;2023-11-21T00:50:41;99644.50;;;12.92;100.00
31761;BME280;18335;51.486;7.562;2023-11-21T00:53:08;99651.16;;;12.83;100.00
31761;BME280;18335;51.486;7.562;2023-11-21T00:55:34;99638.41;;;12.90;100.00
31761;BME280;18335;51.486;7.562;2023-11-21T00:58:01;99648.38;;;12.97;100.00
31761;BME280;18335;51.486;7.562;2023-11-21T01:00:31;99645.13;;;13.08;100.00
31761;BME280;18335;51.486;7.562;2023-11-21T01:02:58;99649.19;;;13.12;100.00
31761;BME280;18335;51.486;7.562;2023-11-21T01:05:25;99650.22;;;13.11;100.00
31761;BME280;18335;51.486;7.562;2023-11-21T01:07:52;99651.09;;;12.97;100.00
31761;BME280;18335;51.486;7.562;2023-11-21T01:10:19;99655.56;;;13.19;100.00
31761;BME280;18335;51.486;7.562;2023-11-21T01:12:46;99655.56;;;13.19;100.00
31761;BME280;18335;51.486;7.562;2023-11-21T01:15:15;99661.56;;;13.08;100.00
31761;BME280;18335;51.486;7.562;2023-11-21T01:17:43;99656.75;;;13.10;100.00
31761;BME280;18335;51.486;7.562;2023-11-21T01:20:11;99664.22;;;12.81;100.00
31761;BME280;18335;51.486;7.562;2023-11-21T01:22:39;99654.75;;;13.04;100.00
31761;BME280;18335;51.486;7.562;2023-11-21T01:25:06;99662.97;;;13.04;100.00
31761;BME280;18335;51.486;7.562;2023-11-21T01:27:33;99662.19;;;12.89;100.00
31761;BME280;18335;51.486;7.562;2023-11-21T01:30:01;99668.84;;;13.01;100.00
31761;BME280;18335;51.486;7.562;2023-11-21T01:32:29;99659.75;;;13.15;100.00
31761;BME280;18335;51.486;7.562;2023-11-21T01:34:57;99665.19;;;12.94;100.00
31761;BME280;18335;51.486;7.562;2023-11-21T01:37:25;99658.53;;;13.03;100.00
31761;BME280;18335;51.486;7.562;2023-11-21T01:39:53;99664.00;;;13.03;100.00
31761;BME280;18335;51.486;7.562;2023-11-21T01:42:20;99661.91;;;13.05;100.00
31761;BME280;18335;51.486;7.562;2023-11-21T01:44:47;99674.16;;;12.88;100.00
31761;BME280;18335;51.486;7.562;2023-11-21T01:47:14;99670.16;;;12.84;100.00
31761;BME280;18335;51.486;7.562;2023-11-21T01:49:43;99663.72;;;13.13;100.00
31761;BME280;18335;51.486;7.562;2023-11-21T01:52:12;99676.59;;;12.98;100.00
31761;BME280;18335;51.486;7.562;2023-11-21T01:54:40;99671.09;;;13.12;100.00
31761;BME280;18335;51.486;7.562;2023-11-21T01:57:08;99669.88;;;13.00;100.00
31761;BME280;18335;51.486;7.562;2023-11-21T01:59:36;99671.19;;;13.04;100.00
31761;BME280;18335;51.486;7.562;2023-11-21T02:02:03;99668.06;;;13.07;100.00
31761;BME280;18335;51.486;7.562;2023-11-21T02:04:32;99675.75;;;12.97;100.00
31761;BME280;18335;51.486;7.562;2023-11-21T02:06:59;99672.97;;;13.12;100.00
31761;BME280;18335;51.486;7.562;2023-11-21T02:09:28;99680.84;;;13.00;100.00
31761;BME280;18335;51.486;7.562;2023-11-21T02:11:56;99683.47;;;13.08;100.00
31761;BME280;18335;51.486;7.562;2023-11-21T02:14:24;99683.69;;;12.71;100.00
31761;BME280;18335;51.486;7.562;2023-11-21T02:16:53;99691.16;;;12.98;100.00
31761;BME280;18335;51.486;7.562;2023-11-21T02:19:22;99695.44;;;12.86;100.00
31761;BME280;18335;51.486;7.562;2023-11-21T02:21:51;99694.34;;;13.02;100.00
31761;BME280;18335;51.486;7.562;2023-11-21T02:24:21;99700.53;;;12.89;100.00
31761;BME280;18335;51.486;7.562;2023-11-21T02:26:48;99707.50;;;12.92;100.00
31761;BME280;18335;51.486;7.562;2023-11-21T02:29:16;99711.16;;;12.99;100.00
31761;BME280;18335;51.486;7.562;2023-11-21T02:31:45;99707.72;;;12.90;100.00
31761;BME280;18335;51.486;7.562;2023-11-21T02:34:15;99717.47;;;12.63;100.00
31761;BME280;18335;51.486;7.562;2023-11-21T02:36:43;99719.72;;;12.74;100.00
31761;BME280;18335;51.486;7.562;2023-11-21T02:39:11;99715.03;;;12.68;100.00
31761;BME280;18335;51.486;7.562;2023-11-21T02:41:40;99719.44;;;13.05;100.00
31761;BME280;18335;51.486;7.562;2023-11-21T02:44:07;99716.81;;;13.12;100.00
31761;BME280;18335;51.486;7.562;2023-11-21T02:46:33;99717.59;;;12.41;100.00
31761;BME280;18335;51.486;7.562;2023-11-21T02:49:00;99717.63;;;12.76;100.00
31761;BME280;18335;51.486;7.562;2023-11-21T02:51:27;99713.88;;;12.77;100.00
31761;BME280;18335;51.486;7.562;2023-11-21T02:53:54;99710.84;;;12.72;100.00
31761;BME280;18335;51.486;7.562;2023-11-21T02:56:24;99707.06;;;12.73;100.00
31761;BME280;18335;51.486;7.562;2023-11-21T02:58:52;99711.44;;;12.68;100.00
31761;BME280;18335;51.486;7.562;2023-11-21T03:01:19;99713.56;;;12.87;100.00
31761;BME280;18335;51.486;7.562;2023-11-21T03:03:46;99714.16;;;12.68;100.00
31761;BME280;18335;51.486;7.562;2023-11-21T03:06:16;99722.81;;;12.86;100.00
31761;BME280;18335;51.486;7.562;2023-11-21T03:08:43;99723.59;;;12.80;100.00
31761;BME280;18335;51.486;7.562;2023-11-21T03:11:10;99724.13;;;12.90;100.00
31761;BME280;18335;51.486;7.562;2023-11-21T03:13:37;99722.69;;;12.94;100.00
31761;BME280;18335;51.486;7.562;2023-11-21T03:16:06;99736.63;;;12.99;100.00
31761;BME280;18335;51.486;7.562;2023-11-21T03:18:34;99736.44;;;13.15;100.00
31761;BME280;18335;51.486;7.562;2023-11-21T03:21:01;99731.75;;;13.09;100.00
31761;BME280;18335;51.486;7.562;2023-11-21T03:23:29;99747.63;;;12.85;100.00
31761;BME280;18335;51.486;7.562;2023-11-21T03:25:55;99752.88;;;13.15;100.00
31761;BME280;18335;51.486;7.562;2023-11-21T03:28:22;99739.09;;;13.09;100.00
31761;BME280;18335;51.486;7.562;2023-11-21T03:30:50;99746.63;;;12.71;100.00
31761;BME280;18335;51.486;7.562;2023-11-21T03:33:18;99744.59;;;13.09;100.00
31761;BME280;18335;51.486;7.562;2023-11-21T03:35:44;99743.91;;;13.07;100.00
31761;BME280;18335;51.486;7.562;2023-11-21T03:38:11;99750.41;;;13.06;100.00
31761;BME280;18335;51.486;7.562;2023-11-21T03:40:38;99748.28;;;13.01;100.00
31761;BME280;18335;51.486;7.562;2023-11-21T03:43:05;99749.88;;;13.10;100.00
31761;BME280;18335;51.486;7.562;2023-11-21T03:45:32;99757.13;;;13.03;100.00
31761;BME280;18335;51.486;7.562;2023-11-21T03:47:59;99756.28;;;12.52;100.00
31761;BME280;18335;51.486;7.562;2023-11-21T03:50:29;99765.06;;;12.33;100.00
31761;BME280;18335;51.486;7.562;2023-11-21T03:52:57;99760.47;;;12.99;100.00
31761;BME280;18335;51.486;7.562;2023-11-21T03:55:24;99762.34;;;13.13;100.00
31761;BME280;18335;51.486;7.562;2023-11-21T03:57:50;99763.66;;;13.17;100.00
31761;BME280;18335;51.486;7.562;2023-11-21T04:00:19;99764.31;;;13.04;100.00
31761;BME280;18335;51.486;7.562;2023-11-21T04:02:46;99780.94;;;13.03;100.00
31761;BME280;18335;51.486;7.562;2023-11-21T04:05:13;99783.13;;;12.93;100.00
31761;BME280;18335;51.486;7.562;2023-11-21T04:07:41;99789.25;;;13.09;100.00
31761;BME280;18335;51.486;7.562;2023-11-21T04:10:09;99792.34;;;13.21;100.00
31761;BME280;18335;51.486;7.562;2023-11-21T04:12:38;99800.22;;;13.09;100.00
31761;BME280;18335;51.486;7.562;2023-11-21T04:15:05;99803.13;;;13.22;100.00
31761;BME280;18335;51.486;7.562;2023-11-21T04:17:34;99797.81;;;13.21;100.00
31761;BME280;18335;51.486;7.562;2023-11-21T04:20:02;99796.59;;;13.23;100.00
31761;BME280;18335;51.486;7.562;2023-11-21T04:22:33;99797.06;;;13.27;100.00
31761;BME280;18335;51.486;7.562;2023-11-21T04:25:02;99804.00;;;13.08;100.00
31761;BME280;18335;51.486;7.562;2023-11-21T04:27:28;99811.75;;;12.75;100.00
31761;BME280;18335;51.486;7.562;2023-11-21T04:29:55;99808.00;;;13.27;100.00
31761;BME280;18335;51.486;7.562;2023-11-21T04:32:22;99810.22;;;13.38;100.00
31761;BME280;18335;51.486;7.562;2023-11-21T04:34:48;99808.53;;;13.01;100.00
31761;BME280;18335;51.486;7.562;2023-11-21T04:37:16;99814.50;;;13.41;100.00
31761;BME280;18335;51.486;7.562;2023-11-21T04:39:43;99814.13;;;13.44;100.00
31761;BME280;18335;51.486;7.562;2023-11-21T04:42:11;99812.53;;;13.35;100.00
31761;BME280;18335;51.486;7.562;2023-11-21T04:44:38;99818.28;;;13.40;100.00
31761;BME280;18335;51.486;7.562;2023-11-21T04:47:06;99813.63;;;13.04;100.00
31761;BME280;18335;51.486;7.562;2023-11-21T04:49:33;99814.44;;;13.34;100.00
31761;BME280;18335;51.486;7.562;2023-11-21T04:52:00;99824.28;;;12.99;100.00
31761;BME280;18335;51.486;7.562;2023-11-21T04:54:27;99821.84;;;13.19;100.00
31761;BME280;18335;51.486;7.562;2023-11-21T04:56:54;99822.31;;;13.22;100.00
31761;BME280;18335;51.486;7.562;2023-11-21T04:59:22;99819.94;;;13.19;100.00
31761;BME280;18335;51.486;7.562;2023-11-21T05:01:50;99815.69;;;13.02;100.00
31761;BME280;18335;51.486;7.562;2023-11-21T05:04:16;99817.97;;;13.13;100.00
31761;BME280;18335;51.486;7.562;2023-11-21T05:06:43;99825.72;;;12.81;100.00
31761;BME280;18335;51.486;7.562;2023-11-21T05:09:10;99820.13;;;13.18;100.00
31761;BME280;18335;51.486;7.562;2023-11-21T05:11:38;99822.44;;;13.36;100.00
31761;BME280;18335;51.486;7.562;2023-11-21T05:14:06;99820.38;;;13.38;100.00
31761;BME280;18335;51.486;7.562;2023-11-21T05:16:35;99829.75;;;13.28;100.00
31761;BME280;18335;51.486;7.562;2023-11-21T05:19:04;99830.41;;;13.30;100.00
31761;BME280;18335;51.486;7.562;2023-11-21T05:21:32;99832.50;;;13.28;100.00
31761;BME280;18335;51.486;7.562;2023-11-21T05:23:59;99835.41;;;13.27;100.00
31761;BME280;18335;51.486;7.562;2023-11-21T05:26:26;99834.13;;;13.08;100.00
31761;BME280;18335;51.486;7.562;2023-11-21T05:28:53;99841.88;;;13.19;100.00
31761;BME280;18335;51.486;7.562;2023-11-21T05:31:20;99850.47;;;13.16;100.00
31761;BME280;18335;51.486;7.562;2023-11-21T05:33:48;99858.19;;;13.27;100.00
31761;BME280;18335;51.486;7.562;2023-11-21T05:36:17;99863.41;;;13.22;100.00
31761;BME280;18335;51.486;7.562;2023-11-21T05:38:44;99856.47;;;13.26;100.00
31761;BME280;18335;51.486;7.562;2023-11-21T05:41:11;99860.81;;;13.36;100.00
31761;BME280;18335;51.486;7.562;2023-11-21T05:43:38;99862.53;;;13.22;100.00
31761;BME280;18335;51.486;7.562;2023-11-21T05:46:06;99867.63;;;13.25;100.00
31761;BME280;18335;51.486;7.562;2023-11-21T05:48:34;99862.28;;;13.17;100.00
31761;BME280;18335;51.486;7.562;2023-11-21T05:51:04;99868.38;;;13.34;100.00
31761;BME280;18335;51.486;7.562;2023-11-21T05:53:30;99862.63;;;13.28;100.00
31761;BME280;18335;51.486;7.562;2023-11-21T05:55:57;99870.75;;;13.22;100.00
31761;BME280;18335;51.486;7.562;2023-11-21T05:58:24;99875.84;;;13.25;100.00
31761;BME280;18335;51.486;7.562;2023-11-21T06:00:53;99880.66;;;13.38;100.00
31761;BME280;18335;51.486;7.562;2023-11-21T06:03:20;99887.97;;;13.16;100.00
31761;BME280;18335;51.486;7.562;2023-11-21T06:05:48;99894.44;;;13.29;100.00
31761;BME280;18335;51.486;7.562;2023-11-21T06:08:17;99899.03;;;13.08;100.00
31761;BME280;18335;51.486;7.562;2023-11-21T06:10:44;99897.41;;;13.13;100.00
31761;BME280;18335;51.486;7.562;2023-11-21T06:13:14;99908.00;;;13.16;100.00
31761;BME280;18335;51.486;7.562;2023-11-21T06:15:41;99909.13;;;13.22;100.00
31761;BME280;18335;51.486;7.562;2023-11-21T06:18:08;99907.78;;;13.03;100.00
31761;BME280;18335;51.486;7.562;2023-11-21T06:20:36;99912.03;;;13.20;100.00
31761;BME280;18335;51.486;7.562;2023-11-21T06:23:03;99909.22;;;13.14;100.00
31761;BME280;18335;51.486;7.562;2023-11-21T06:25:32;99909.28;;;13.20;100.00
31761;BME280;18335;51.486;7.562;2023-11-21T06:28:01;99917.50;;;13.06;100.00
31761;BME280;18335;51.486;7.562;2023-11-21T06:30:28;99926.34;;;12.93;100.00
31761;BME280;18335;51.486;7.562;2023-11-21T06:32:55;99928.53;;;12.83;100.00
31761;BME280;18335;51.486;7.562;2023-11-21T06:35:22;99920.72;;;12.95;100.00
31761;BME280;18335;51.486;7.562;2023-11-21T06:37:49;99925.44;;;12.86;100.00
31761;BME280;18335;51.486;7.562;2023-11-21T06:40:17;99934.41;;;12.80;100.00
31761;BME280;18335;51.486;7.562;2023-11-21T06:42:46;99934.50;;;12.87;100.00
31761;BME280;18335;51.486;7.562;2023-11-21T06:45:13;99938.09;;;12.87;100.00
31761;BME280;18335;51.486;7.562;2023-11-21T06:47:40;99935.31;;;12.72;100.00
31761;BME280;18335;51.486;7.562;2023-11-21T06:50:08;99946.38;;;12.79;100.00
31761;BME280;18335;51.486;7.562;2023-11-21T06:52:35;99949.47;;;12.61;100.00
31761;BME280;18335;51.486;7.562;2023-11-21T06:55:01;99949.66;;;12.60;100.00
31761;BME280;18335;51.486;7.562;2023-11-21T06:57:29;99958.09;;;12.36;100.00
31761;BME280;18335;51.486;7.562;2023-11-21T06:59:57;99958.75;;;12.38;100.00
31761;BME280;18335;51.486;7.562;2023-11-21T07:02:24;99959.94;;;12.58;100.00
31761;BME280;18335;51.486;7.562;2023-11-21T07:04:51;99976.13;;;12.45;100.00
31761;BME280;18335;51.486;7.562;2023-11-21T07:07:18;99980.09;;;12.19;100.00
31761;BME280;18335;51.486;7.562;2023-11-21T07:09:46;99980.50;;;12.54;100.00
31761;BME280;18335;51.486;7.562;2023-11-21T07:12:13;99991.13;;;12.49;100.00
31761;BME280;18335;51.486;7.562;2023-11-21T07:14:40;99987.28;;;12.58;100.00
31761;BME280;18335;51.486;7.562;2023-11-21T07:17:11;99997.59;;;12.56;100.00
31761;BME280;18335;51.486;7.562;2023-11-21T07:19:38;99999.50;;;12.70;100.00
31761;BME280;18335;51.486;7.562;2023-11-21T07:22:07;100004.56;;;12.81;100.00
31761;BME280;18335;51.486;7.562;2023-11-21T07:24:34;100007.91;;;12.68;100.00
31761;BME280;18335;51.486;7.562;2023-11-21T07:27:02;100006.84;;;12.69;100.00
31761;BME280;18335;51.486;7.562;2023-11-21T07:29:30;100019.16;;;12.73;100.00
31761;BME280;18335;51.486;7.562;2023-11-21T07:31:56;100011.97;;;12.72;100.00
31761;BME280;18335;51.486;7.562;2023-11-21T07:34:25;100021.25;;;12.71;100.00
31761;BME280;18335;51.486;7.562;2023-11-21T07:36:51;100026.03;;;12.69;100.00
31761;BME280;18335;51.486;7.562;2023-11-21T07:39:18;100017.59;;;12.94;100.00
31761;BME280;18335;51.486;7.562;2023-11-21T07:41:45;100014.22;;;13.06;100.00
31761;BME280;18335;51.486;7.562;2023-11-21T07:44:15;100016.09;;;13.06;100.00
31761;BME280;18335;51.486;7.562;2023-11-21T07:46:42;100025.47;;;13.11;100.00
31761;BME280;18335;51.486;7.562;2023-11-21T07:49:09;100017.56;;;13.16;100.00
31761;BME280;18335;51.486;7.562;2023-11-21T07:51:40;100027.41;;;13.25;100.00
31761;BME280;18335;51.486;7.562;2023-11-21T07:54:06;100023.91;;;13.32;100.00
31761;BME280;18335;51.486;7.562;2023-11-21T07:56:33;100024.56;;;13.34;100.00
31761;BME280;18335;51.486;7.562;2023-11-21T07:59:00;100025.97;;;13.44;100.00
31761;BME280;18335;51.486;7.562;2023-11-21T08:01:27;100027.97;;;13.50;100.00
31761;BME280;18335;51.486;7.562;2023-11-21T08:03:54;100017.84;;;13.51;100.00
31761;BME280;18335;51.486;7.562;2023-11-21T08:06:23;100020.88;;;13.41;100.00
31761;BME280;18335;51.486;7.562;2023-11-21T08:08:52;100026.16;;;13.72;100.00
31761;BME280;18335;51.486;7.562;2023-11-21T08:11:19;100027.38;;;13.84;100.00
31761;BME280;18335;51.486;7.562;2023-11-21T08:13:46;100029.16;;;13.77;100.00
31761;BME280;18335;51.486;7.562;2023-11-21T08:16:13;100031.44;;;13.88;100.00
31761;BME280;18335;51.486;7.562;2023-11-21T08:18:41;100040.09;;;14.06;100.00
31761;BME280;18335;51.486;7.562;2023-11-21T08:21:07;100040.44;;;14.32;100.00
31761;BME280;18335;51.486;7.562;2023-11-21T08:23:34;100056.31;;;14.22;100.00
31761;BME280;18335;51.486;7.562;2023-11-21T08:26:02;100057.72;;;13.97;100.00
31761;BME280;18335;51.486;7.562;2023-11-21T08:28:31;100060.38;;;14.26;100.00
31761;BME280;18335;51.486;7.562;2023-11-21T08:30:58;100067.59;;;14.27;100.00
31761;BME280;18335;51.486;7.562;2023-11-21T08:33:24;100073.16;;;14.34;100.00
31761;BME280;18335;51.486;7.562;2023-11-21T08:35:51;100076.53;;;14.51;100.00
31761;BME280;18335;51.486;7.562;2023-11-21T08:38:18;100081.56;;;13.67;100.00
31761;BME280;18335;51.486;7.562;2023-11-21T08:40:45;100078.53;;;13.77;100.00
31761;BME280;18335;51.486;7.562;2023-11-21T08:43:13;100083.84;;;13.78;100.00
31761;BME280;18335;51.486;7.562;2023-11-21T08:45:41;100090.63;;;13.68;100.00
31761;BME280;18335;51.486;7.562;2023-11-21T08:48:08;100097.25;;;13.88;100.00
31761;BME280;18335;51.486;7.562;2023-11-21T08:50:37;100097.72;;;14.06;100.00
31761;BME280;18335;51.486;7.562;2023-11-21T08:53:03;100101.41;;;13.99;100.00
31761;BME280;18335;51.486;7.562;2023-11-21T08:55:31;100104.41;;;14.18;100.00
31761;BME280;18335;51.486;7.562;2023-11-21T08:58:03;100112.91;;;14.23;100.00
31761;BME280;18335;51.486;7.562;2023-11-21T09:00:32;100114.97;;;14.51;100.00
31761;BME280;18335;51.486;7.562;2023-11-21T09:03:00;100118.94;;;13.98;100.00
31761;BME280;18335;51.486;7.562;2023-11-21T09:05:27;100126.38;;;13.89;100.00
31761;BME280;18335;51.486;7.562;2023-11-21T09:07:54;100125.63;;;13.95;100.00
31761;BME280;18335;51.486;7.562;2023-11-21T09:10:21;100122.19;;;14.22;100.00
31761;BME280;18335;51.486;7.562;2023-11-21T09:12:49;100120.13;;;14.24;100.00
31761;BME280;18335;51.486;7.562;2023-11-21T09:15:17;100119.00;;;14.55;100.00
31761;BME280;18335;51.486;7.562;2023-11-21T09:17:47;100118.19;;;14.54;100.00
31761;BME280;18335;51.486;7.562;2023-11-21T09:20:14;100122.81;;;14.54;100.00
31761;BME280;18335;51.486;7.562;2023-11-21T09:22:41;100127.97;;;14.42;100.00
31761;BME280;18335;51.486;7.562;2023-11-21T09:25:10;100126.00;;;14.21;100.00
31761;BME280;18335;51.486;7.562;2023-11-21T09:27:38;100132.13;;;14.74;100.00
31761;BME280;18335;51.486;7.562;2023-11-21T09:30:06;100136.81;;;14.59;100.00
31761;BME280;18335;51.486;7.562;2023-11-21T09:32:35;100137.84;;;14.58;100.00
31761;BME280;18335;51.486;7.562;2023-11-21T09:35:05;100140.28;;;14.67;100.00
31761;BME280;18335;51.486;7.562;2023-11-21T09:37:33;100145.00;;;14.08;100.00
31761;BME280;18335;51.486;7.562;2023-11-21T09:40:01;100143.34;;;14.58;100.00
31761;BME280;18335;51.486;7.562;2023-11-21T09:42:32;100149.06;;;14.42;100.00
31761;BME280;18335;51.486;7.562;2023-11-21T09:45:06;100155.72;;;14.68;100.00
31761;BME280;18335;51.486;7.562;2023-11-21T09:47:38;100158.38;;;14.62;100.00
31761;BME280;18335;51.486;7.562;2023-11-21T09:50:07;100172.31;;;14.96;100.00
31761;BME280;18335;51.486;7.562;2023-11-21T09:52:45;100164.34;;;14.65;100.00
31761;BME280;18335;51.486;7.562;2023-11-21T09:55:16;100165.56;;;14.99;100.00
31761;BME280;18335;51.486;7.562;2023-11-21T09:57:47;100166.66;;;15.04;100.00
31761;BME280;18335;51.486;7.562;2023-11-21T10:00:16;100163.59;;;15.35;100.00
31761;BME280;18335;51.486;7.562;2023-11-21T10:02:45;100166.25;;;14.65;100.00
31761;BME280;18335;51.486;7.562;2023-11-21T10:05:14;100165.16;;;15.72;100.00
31761;BME280;18335;51.486;7.562;2023-11-21T10:07:43;100156.28;;;15.70;100.00
31761;BME280;18335;51.486;7.562;2023-11-21T10:10:10;100166.88;;;15.73;100.00
31761;BME280;18335;51.486;7.562;2023-11-21T10:12:37;100166.38;;;15.63;100.00
31761;BME280;18335;51.486;7.562;2023-11-21T10:15:08;100166.53;;;14.91;100.00
31761;BME280;18335;51.486;7.562;2023-11-21T10:17:42;100170.00;;;15.00;100.00
31761;BME280;18335;51.486;7.562;2023-11-21T10:20:11;100173.97;;;14.76;100.00
31761;BME280;18335;51.486;7.562;2023-11-21T10:22:40;100172.41;;;15.09;100.00
31761;BME280;18335;51.486;7.562;2023-11-21T10:25:08;100172.88;;;14.91;100.00
31761;BME280;18335;51.486;7.562;2023-11-21T10:27:35;100175.06;;;14.60;100.00
31761;BME280;18335;51.486;7.562;2023-11-21T10:30:04;100182.50;;;14.81;100.00
31761;BME280;18335;51.486;7.562;2023-11-21T10:32:31;100184.06;;;14.90;100.00
31761;BME280;18335;51.486;7.562;2023-11-21T10:34:58;100177.00;;;14.81;100.00
31761;BME280;18335;51.486;7.562;2023-11-21T10:37:28;100183.13;;;14.83;100.00
31761;BME280;18335;51.486;7.562;2023-11-21T10:39:58;100183.66;;;15.14;100.00
31761;BME280;18335;51.486;7.562;2023-11-21T10:42:25;100178.63;;;14.96;100.00
31761;BME280;18335;51.486;7.562;2023-11-21T10:44:52;100186.22;;;15.16;100.00
31761;BME280;18335;51.486;7.562;2023-11-21T10:47:19;100180.81;;;15.22;100.00
31761;BME280;18335;51.486;7.562;2023-11-21T10:49:48;100178.25;;;15.21;100.00
31761;BME280;18335;51.486;7.562;2023-11-21T10:52:15;100174.53;;;15.28;100.00
31761;BME280;18335;51.486;7.562;2023-11-21T10:54:45;100183.22;;;15.11;100.00
31761;BME280;18335;51.486;7.562;2023-11-21T10:57:17;100183.72;;;15.42;100.00
31761;BME280;18335;51.486;7.562;2023-11-21T10:59:47;100189.44;;;15.40;100.00
31761;BME280;18335;51.486;7.562;2023-11-21T11:02:23;100181.53;;;15.52;100.00
31761;BME280;18335;51.486;7.562;2023-11-21T11:04:54;100201.69;;;15.38;100.00
31761;BME280;18335;51.486;7.562;2023-11-21T11:07:26;100203.59;;;15.16;100.00
31761;BME280;18335;51.486;7.562;2023-11-21T11:09:53;100202.09;;;15.14;100.00
31761;BME280;18335;51.486;7.562;2023-11-21T11:12:23;100214.38;;;15.18;100.00
31761;BME280;18335;51.486;7.562;2023-11-21T11:14:51;100213.50;;;15.38;100.00
31761;BME280;18335;51.486;7.562;2023-11-21T11:17:19;100220.63;;;15.12;100.00
31761;BME280;18335;51.486;7.562;2023-11-21T11:19:46;100222.91;;;14.51;100.00
31761;BME280;18335;51.486;7.562;2023-11-21T11:22:24;100221.44;;;14.70;100.00
31761;BME280;18335;51.486;7.562;2023-11-21T11:25:07;100210.94;;;14.29;100.00
31761;BME280;18335;51.486;7.562;2023-11-21T11:27:58;100216.63;;;14.72;100.00
31761;BME280;18335;51.486;7.562;2023-11-21T11:30:39;100220.50;;;14.19;100.00
31761;BME280;18335;51.486;7.562;2023-11-21T11:33:14;100214.00;;;14.34;100.00
31761;BME280;18335;51.486;7.562;2023-11-21T11:35:56;100217.41;;;14.51;100.00
31761;BME280;18335;51.486;7.562;2023-11-21T11:38:23;100231.09;;;14.07;100.00
31761;BME280;18335;51.486;7.562;2023-11-21T11:40:53;100230.38;;;14.43;100.00
31761;BME280;18335;51.486;7.562;2023-11-21T11:43:28;100230.91;;;14.23;100.00
31761;BME280;18335;51.486;7.562;2023-11-21T11:45:56;100218.44;;;14.50;100.00
31761;BME280;18335;51.486;7.562;2023-11-21T11:48:24;100221.44;;;14.70;100.00
31761;BME280;18335;51.486;7.562;2023-11-21T11:51:02;100215.50;;;14.52;100.00
31761;BME280;18335;51.486;7.562;2023-11-21T11:53:34;100224.75;;;14.07;100.00
31761;BME280;18335;51.486;7.562;2023-11-21T11:56:23;100220.03;;;14.59;100.00
31761;BME280;18335;51.486;7.562;2023-11-21T11:58:54;100232.44;;;14.11;100.00
31761;BME280;18335;51.486;7.562;2023-11-21T12:01:23;100230.38;;;14.43;100.00
31761;BME280;18335;51.486;7.562;2023-11-21T12:04:23;100239.72;;;14.19;100.00
31761;BME280;18335;51.486;7.562;2023-11-21T12:06:56;100247.50;;;14.15;100.00
31761;BME280;18335;51.486;7.562;2023-11-21T12:09:25;100244.16;;;14.64;100.00
31761;BME280;18335;51.486;7.562;2023-11-21T12:11:53;100248.34;;;14.60;100.00
31761;BME280;18335;51.486;7.562;2023-11-21T12:14:23;100252.16;;;14.44;100.00
31761;BME280;18335;51.486;7.562;2023-11-21T12:16:51;100257.03;;;14.05;100.00
31761;BME280;18335;51.486;7.562;2023-11-21T12:19:18;100258.72;;;14.06;100.00
31761;BME280;18335;51.486;7.562;2023-11-21T12:21:48;100261.41;;;14.43;100.00
31761;BME280;18335;51.486;7.562;2023-11-21T12:24:16;100265.00;;;14.29;100.00
31761;BME280;18335;51.486;7.562;2023-11-21T12:26:43;100275.69;;;13.72;100.00
31761;BME280;18335;51.486;7.562;2023-11-21T12:29:10;100269.75;;;14.50;100.00
31761;BME280;18335;51.486;7.562;2023-11-21T12:31:39;100273.97;;;14.08;100.00
31761;BME280;18335;51.486;7.562;2023-11-21T12:34:06;100277.22;;;13.89;100.00
31761;BME280;18335;51.486;7.562;2023-11-21T12:36:37;100283.25;;;13.70;100.00
31761;BME280;18335;51.486;7.562;2023-11-21T12:39:04;100285.66;;;13.88;100.00
31761;BME280;18335;51.486;7.562;2023-11-21T12:41:31;100286.59;;;13.57;100.00
31761;BME280;18335;51.486;7.562;2023-11-21T12:43:58;100290.34;;;14.16;100.00
31761;BME280;18335;51.486;7.562;2023-11-21T12:46:25;100288.44;;;13.65;100.00
31761;BME280;18335;51.486;7.562;2023-11-21T12:48:56;100284.72;;;13.58;100.00
31761;BME280;18335;51.486;7.562;2023-11-21T12:51:23;100291.56;;;13.62;100.00